sensor_id;sensor_type;location;lat;lon;timestamp;pressure;altitude;pressure_sealevel;temperature;humidity
46291;BME280;32023;44.444;26.006;2024-01-15T00:01:07;99787.47;;;-0.60;72.37
46291;BME280;32023;44.444;26.006;2024-01-15T00:03:34;99776.66;;;-0.60;72.62
46291;BME280;32023;44.444;26.006;2024-01-15T00:06:01;99785.44;;;-0.58;72.27
46291;BME280;32023;44.444;26.006;2024-01-15T00:08:28;99791.03;;;-0.60;72.91
46291;BME280;32023;44.444;26.006;2024-01-15T00:10:54;99783.75;;;-0.59;72.67
46291;BME280;32023;44.444;26.006;2024-01-15T00:13:20;99793.53;;;-0.58;72.68
46291;BME280;32023;44.444;26.006;2024-01-15T00:15:47;99791.47;;;-0.56;72.83
46291;BME280;32023;44.444;26.006;2024-01-15T00:18:13;99790.63;;;-0.57;73.18
46291;BME280;32023;44.444;26.006;2024-01-15T00:20:39;99791.25;;;-0.55;73.07
46291;BME280;32023;44.444;26.006;2024-01-15T00:23:06;99784.84;;;-0.54;72.67
46291;BME280;32023;44.444;26.006;2024-01-15T00:25:32;99776.91;;;-0.55;72.80
46291;BME280;32023;44.444;26.006;2024-01-15T00:27:58;99779.00;;;-0.57;73.33
46291;BME280;32023;44.444;26.006;2024-01-15T00:30:25;99783.34;;;-0.56;73.48
46291;BME280;32023;44.444;26.006;2024-01-15T00:32:55;99785.66;;;-0.53;73.38
46291;BME280;32023;44.444;26.006;2024-01-15T00:35:22;99794.41;;;-0.51;73.23
46291;BME280;32023;44.444;26.006;2024-01-15T00:37:48;99784.59;;;-0.52;73.28
46291;BME280;32023;44.444;26.006;2024-01-15T00:40:21;99786.28;;;-0.51;73.58
46291;BME280;32023;44.444;26.006;2024-01-15T00:42:47;99776.50;;;-0.52;73.34
46291;BME280;32023;44.444;26.006;2024-01-15T00:45:13;99789.00;;;-0.51;73.06
46291;BME280;32023;44.444;26.006;2024-01-15T00:47:40;99794.59;;;-0.53;73.27
46291;BME280;32023;44.444;26.006;2024-01-15T00:50:06;99792.28;;;-0.56;73.12
46291;BME280;32023;44.444;26.006;2024-01-15T00:52:33;99801.44;;;-0.57;73.02
46291;BME280;32023;44.444;26.006;2024-01-15T00:55:18;99793.13;;;-0.62;72.78
46291;BME280;32023;44.444;26.006;2024-01-15T00:57:45;99800.16;;;-0.67;72.99
46291;BME280;32023;44.444;26.006;2024-01-15T01:00:11;99799.94;;;-0.72;73.11
46291;BME280;32023;44.444;26.006;2024-01-15T01:02:38;99796.16;;;-0.71;73.09
46291;BME280;32023;44.444;26.006;2024-01-15T01:05:07;99791.59;;;-0.71;72.90
46291;BME280;32023;44.444;26.006;2024-01-15T01:07:33;99799.28;;;-0.74;72.72
46291;BME280;32023;44.444;26.006;2024-01-15T01:09:59;99790.56;;;-0.76;72.70
46291;BME280;32023;44.444;26.006;2024-01-15T01:12:33;99787.19;;;-0.78;72.28
46291;BME280;32023;44.444;26.006;2024-01-15T01:14:59;99793.84;;;-0.81;71.97
46291;BME280;32023;44.444;26.006;2024-01-15T01:17:29;99790.75;;;-0.78;71.78
46291;BME280;32023;44.444;26.006;2024-01-15T01:19:56;99786.19;;;-0.77;71.91
46291;BME280;32023;44.444;26.006;2024-01-15T01:22:23;99795.31;;;-0.78;71.60
46291;BME280;32023;44.444;26.006;2024-01-15T01:24:49;99786.78;;;-0.82;71.60
46291;BME280;32023;44.444;26.006;2024-01-15T01:27:15;99783.88;;;-0.80;71.53
46291;BME280;32023;44.444;26.006;2024-01-15T01:29:55;99793.41;;;-0.84;71.37
46291;BME280;32023;44.444;26.006;2024-01-15T01:32:32;99782.19;;;-0.88;71.37
46291;BME280;32023;44.444;26.006;2024-01-15T01:35:05;99778.66;;;-0.88;71.06
46291;BME280;32023;44.444;26.006;2024-01-15T01:37:32;99777.38;;;-0.92;71.26
46291;BME280;32023;44.444;26.006;2024-01-15T01:40:00;99767.16;;;-0.97;71.54
46291;BME280;32023;44.444;26.006;2024-01-15T01:42:26;99760.69;;;-1.03;71.10
46291;BME280;32023;44.444;26.006;2024-01-15T01:44:53;99769.41;;;-1.07;71.30
46291;BME280;32023;44.444;26.006;2024-01-15T01:47:30;99770.41;;;-1.15;71.51
46291;BME280;32023;44.444;26.006;2024-01-15T01:49:57;99771.22;;;-1.14;71.92
46291;BME280;32023;44.444;26.006;2024-01-15T01:52:24;99772.06;;;-1.14;71.92
46291;BME280;32023;44.444;26.006;2024-01-15T01:54:58;99785.38;;;-1.12;72.05
46291;BME280;32023;44.444;26.006;2024-01-15T01:57:30;99777.06;;;-1.11;71.91
46291;BME280;32023;44.444;26.006;2024-01-15T01:59:57;99775.41;;;-1.12;71.61
46291;BME280;32023;44.444;26.006;2024-01-15T02:02:24;99762.13;;;-1.07;71.26
46291;BME280;32023;44.444;26.006;2024-01-15T02:04:56;99770.84;;;-1.05;71.15
46291;BME280;32023;44.444;26.006;2024-01-15T02:07:23;99769.19;;;-1.06;70.98
46291;BME280;32023;44.444;26.006;2024-01-15T02:09:50;99763.41;;;-1.03;71.11
46291;BME280;32023;44.444;26.006;2024-01-15T02:12:17;99758.16;;;-1.11;71.16
46291;BME280;32023;44.444;26.006;2024-01-15T02:14:43;99749.41;;;-1.13;71.14
46291;BME280;32023;44.444;26.006;2024-01-15T02:17:10;99746.50;;;-1.18;71.14
46291;BME280;32023;44.444;26.006;2024-01-15T02:19:38;99749.56;;;-1.21;70.87
46291;BME280;32023;44.444;26.006;2024-01-15T02:22:06;99757.63;;;-1.27;71.00
46291;BME280;32023;44.444;26.006;2024-01-15T02:24:33;99752.44;;;-1.29;70.85
46291;BME280;32023;44.444;26.006;2024-01-15T02:27:00;99755.53;;;-1.32;71.25
46291;BME280;32023;44.444;26.006;2024-01-15T02:29:30;99750.53;;;-1.35;71.09
46291;BME280;32023;44.444;26.006;2024-01-15T02:31:57;99747.59;;;-1.40;70.83
46291;BME280;32023;44.444;26.006;2024-01-15T02:34:23;99746.34;;;-1.44;71.12
46291;BME280;32023;44.444;26.006;2024-01-15T02:36:49;99746.06;;;-1.49;71.04
46291;BME280;32023;44.444;26.006;2024-01-15T02:39:20;99747.25;;;-1.58;71.31
46291;BME280;32023;44.444;26.006;2024-01-15T02:41:46;99743.09;;;-1.61;71.22
46291;BME280;32023;44.444;26.006;2024-01-15T02:44:13;99733.75;;;-1.58;71.54
46291;BME280;32023;44.444;26.006;2024-01-15T02:46:42;99735.66;;;-1.59;71.42
46291;BME280;32023;44.444;26.006;2024-01-15T02:49:12;99739.94;;;-1.64;71.41
46291;BME280;32023;44.444;26.006;2024-01-15T02:51:38;99736.63;;;-1.66;71.60
46291;BME280;32023;44.444;26.006;2024-01-15T02:54:09;99744.06;;;-1.68;71.72
46291;BME280;32023;44.444;26.006;2024-01-15T02:56:41;99742.41;;;-1.69;71.72
46291;BME280;32023;44.444;26.006;2024-01-15T02:59:07;99733.94;;;-1.66;71.56
46291;BME280;32023;44.444;26.006;2024-01-15T03:01:54;99747.22;;;-1.65;71.35
46291;BME280;32023;44.444;26.006;2024-01-15T03:04:21;99742.66;;;-1.64;71.42
46291;BME280;32023;44.444;26.006;2024-01-15T03:06:47;99745.97;;;-1.62;71.35
46291;BME280;32023;44.444;26.006;2024-01-15T03:09:14;99736.22;;;-1.63;71.14
46291;BME280;32023;44.444;26.006;2024-01-15T03:11:40;99735.00;;;-1.61;71.26
46291;BME280;32023;44.444;26.006;2024-01-15T03:14:09;99736.44;;;-1.58;71.25
46291;BME280;32023;44.444;26.006;2024-01-15T03:16:35;99725.28;;;-1.55;71.28
46291;BME280;32023;44.444;26.006;2024-01-15T03:19:02;99719.09;;;-1.49;71.13
46291;BME280;32023;44.444;26.006;2024-01-15T03:21:28;99713.69;;;-1.49;70.62
46291;BME280;32023;44.444;26.006;2024-01-15T03:23:55;99713.28;;;-1.46;70.68
46291;BME280;32023;44.444;26.006;2024-01-15T03:26:24;99711.59;;;-1.47;70.55
46291;BME280;32023;44.444;26.006;2024-01-15T03:31:56;99708.25;;;-1.56;70.70
46291;BME280;32023;44.444;26.006;2024-01-15T03:34:22;99720.91;;;-1.56;70.51
46291;BME280;32023;44.444;26.006;2024-01-15T03:36:51;99714.41;;;-1.62;70.71
46291;BME280;32023;44.444;26.006;2024-01-15T03:39:18;99724.59;;;-1.64;71.20
46291;BME280;32023;44.444;26.006;2024-01-15T03:41:47;99723.56;;;-1.63;70.90
46291;BME280;32023;44.444;26.006;2024-01-15T03:44:14;99724.38;;;-1.62;71.24
46291;BME280;32023;44.444;26.006;2024-01-15T03:46:40;99720.66;;;-1.61;70.94
46291;BME280;32023;44.444;26.006;2024-01-15T03:49:06;99723.59;;;-1.56;70.96
46291;BME280;32023;44.444;26.006;2024-01-15T03:51:33;99722.38;;;-1.54;71.16
46291;BME280;32023;44.444;26.006;2024-01-15T03:53:59;99731.31;;;-1.53;70.63
46291;BME280;32023;44.444;26.006;2024-01-15T03:56:27;99732.41;;;-1.48;70.52
46291;BME280;32023;44.444;26.006;2024-01-15T03:58:53;99726.59;;;-1.44;70.23
46291;BME280;32023;44.444;26.006;2024-01-15T04:01:24;99734.09;;;-1.40;70.32
46291;BME280;32023;44.444;26.006;2024-01-15T04:03:55;99733.69;;;-1.37;69.96
46291;BME280;32023;44.444;26.006;2024-01-15T04:06:21;99727.06;;;-1.34;69.68
46291;BME280;32023;44.444;26.006;2024-01-15T04:08:48;99719.78;;;-1.34;69.80
46291;BME280;32023;44.444;26.006;2024-01-15T04:11:16;99721.47;;;-1.33;69.82
46291;BME280;32023;44.444;26.006;2024-01-15T04:13:43;99726.88;;;-1.33;69.71
46291;BME280;32023;44.444;26.006;2024-01-15T04:16:09;99726.22;;;-1.35;69.49
46291;BME280;32023;44.444;26.006;2024-01-15T04:18:37;99725.38;;;-1.35;69.64
46291;BME280;32023;44.444;26.006;2024-01-15T04:21:05;99724.13;;;-1.39;69.59
46291;BME280;32023;44.444;26.006;2024-01-15T04:23:32;99716.84;;;-1.39;69.71
46291;BME280;32023;44.444;26.006;2024-01-15T04:25:59;99723.34;;;-1.33;69.71
46291;BME280;32023;44.444;26.006;2024-01-15T04:28:25;99714.22;;;-1.32;69.60
46291;BME280;32023;44.444;26.006;2024-01-15T04:30:52;99715.00;;;-1.32;69.37
46291;BME280;32023;44.444;26.006;2024-01-15T04:33:18;99718.78;;;-1.33;69.21
46291;BME280;32023;44.444;26.006;2024-01-15T04:35:50;99713.56;;;-1.34;69.56
46291;BME280;32023;44.444;26.006;2024-01-15T04:38:27;99707.97;;;-1.33;69.37
46291;BME280;32023;44.444;26.006;2024-01-15T04:40:56;99716.84;;;-1.39;69.63
46291;BME280;32023;44.444;26.006;2024-01-15T04:43:26;99712.69;;;-1.41;69.62
46291;BME280;32023;44.444;26.006;2024-01-15T04:45:52;99710.59;;;-1.46;69.49
46291;BME280;32023;44.444;26.006;2024-01-15T04:48:22;99699.78;;;-1.46;69.62
46291;BME280;32023;44.444;26.006;2024-01-15T04:50:49;99701.47;;;-1.45;69.83
46291;BME280;32023;44.444;26.006;2024-01-15T04:53:18;99705.44;;;-1.41;69.80
46291;BME280;32023;44.444;26.006;2024-01-15T04:55:49;99705.22;;;-1.39;69.89
46291;BME280;32023;44.444;26.006;2024-01-15T04:58:15;99700.44;;;-1.44;69.47
46291;BME280;32023;44.444;26.006;2024-01-15T05:00:42;99715.38;;;-1.41;69.93
46291;BME280;32023;44.444;26.006;2024-01-15T05:03:11;99712.44;;;-1.47;69.84
46291;BME280;32023;44.444;26.006;2024-01-15T05:05:37;99707.25;;;-1.48;69.94
46291;BME280;32023;44.444;26.006;2024-01-15T05:11:14;99705.84;;;-1.44;70.11
46291;BME280;32023;44.444;26.006;2024-01-15T05:14:13;99700.88;;;-1.40;69.76
46291;BME280;32023;44.444;26.006;2024-01-15T05:16:46;99691.34;;;-1.36;70.06
46291;BME280;32023;44.444;26.006;2024-01-15T05:19:13;99690.28;;;-1.35;69.94
46291;BME280;32023;44.444;26.006;2024-01-15T05:21:52;99688.41;;;-1.35;70.23
46291;BME280;32023;44.444;26.006;2024-01-15T05:24:18;99686.75;;;-1.36;69.85
46291;BME280;32023;44.444;26.006;2024-01-15T05:26:55;99687.16;;;-1.39;69.98
46291;BME280;32023;44.444;26.006;2024-01-15T05:29:26;99681.34;;;-1.36;69.99
46291;BME280;32023;44.444;26.006;2024-01-15T05:32:05;99687.22;;;-1.32;69.89
46291;BME280;32023;44.444;26.006;2024-01-15T05:34:40;99673.09;;;-1.28;69.86
46291;BME280;32023;44.444;26.006;2024-01-15T05:37:12;99670.22;;;-1.20;69.86
46291;BME280;32023;44.444;26.006;2024-01-15T05:43:05;99668.16;;;-1.18;68.94
46291;BME280;32023;44.444;26.006;2024-01-15T05:49:23;99669.75;;;-1.30;70.13
46291;BME280;32023;44.444;26.006;2024-01-15T06:18:38;99650.19;;;-0.84;68.28
46291;BME280;32023;44.444;26.006;2024-01-15T06:21:21;99639.63;;;-0.73;67.67
46291;BME280;32023;44.444;26.006;2024-01-15T06:23:54;99641.91;;;-0.63;67.56
46291;BME280;32023;44.444;26.006;2024-01-15T06:26:33;99651.69;;;-0.56;67.30
46291;BME280;32023;44.444;26.006;2024-01-15T06:28:59;99660.03;;;-0.37;67.02
46291;BME280;32023;44.444;26.006;2024-01-15T06:31:41;99654.44;;;-0.23;66.28
46291;BME280;32023;44.444;26.006;2024-01-15T06:34:11;99660.25;;;-0.06;65.80
46291;BME280;32023;44.444;26.006;2024-01-15T06:36:44;99665.03;;;0.05;65.27
46291;BME280;32023;44.444;26.006;2024-01-15T06:39:45;99659.22;;;0.15;64.39
46291;BME280;32023;44.444;26.006;2024-01-15T06:42:21;99668.75;;;0.30;64.17
46291;BME280;32023;44.444;26.006;2024-01-15T06:44:48;99665.44;;;0.41;63.76
46291;BME280;32023;44.444;26.006;2024-01-15T06:47:29;99664.13;;;0.64;63.13
46291;BME280;32023;44.444;26.006;2024-01-15T06:50:00;99657.38;;;0.79;62.27
46291;BME280;32023;44.444;26.006;2024-01-15T06:52:26;99647.97;;;0.88;61.58
46291;BME280;32023;44.444;26.006;2024-01-15T06:54:53;99649.09;;;1.19;62.01
46291;BME280;32023;44.444;26.006;2024-01-15T06:57:24;99640.03;;;1.63;61.15
46291;BME280;32023;44.444;26.006;2024-01-15T06:59:51;99635.06;;;2.09;60.29
46291;BME280;32023;44.444;26.006;2024-01-15T07:02:17;99626.91;;;2.52;59.16
46291;BME280;32023;44.444;26.006;2024-01-15T07:04:44;99629.78;;;2.94;57.40
46291;BME280;32023;44.444;26.006;2024-01-15T07:07:10;99634.75;;;3.26;56.24
46291;BME280;32023;44.444;26.006;2024-01-15T07:09:36;99632.88;;;3.27;54.02
46291;BME280;32023;44.444;26.006;2024-01-15T07:12:05;99638.03;;;3.47;53.75
46291;BME280;32023;44.444;26.006;2024-01-15T07:14:32;99638.66;;;3.60;53.18
46291;BME280;32023;44.444;26.006;2024-01-15T07:17:02;99641.94;;;3.80;52.82
46291;BME280;32023;44.444;26.006;2024-01-15T07:19:31;99635.19;;;3.95;51.81
46291;BME280;32023;44.444;26.006;2024-01-15T07:22:05;99637.94;;;4.18;51.70
46291;BME280;32023;44.444;26.006;2024-01-15T07:24:32;99626.34;;;4.22;50.34
46291;BME280;32023;44.444;26.006;2024-01-15T07:27:01;99635.59;;;4.33;50.67
46291;BME280;32023;44.444;26.006;2024-01-15T07:29:33;99637.22;;;4.57;50.33
46291;BME280;32023;44.444;26.006;2024-01-15T07:32:03;99640.72;;;4.93;49.30
46291;BME280;32023;44.444;26.006;2024-01-15T07:34:39;99644.75;;;5.30;48.04
46291;BME280;32023;44.444;26.006;2024-01-15T07:37:06;99647.97;;;5.27;46.99
46291;BME280;32023;44.444;26.006;2024-01-15T07:40:07;99646.03;;;5.39;46.59
46291;BME280;32023;44.444;26.006;2024-01-15T07:42:42;99649.84;;;5.66;46.64
46291;BME280;32023;44.444;26.006;2024-01-15T07:45:12;99644.50;;;6.05;46.05
46291;BME280;32023;44.444;26.006;2024-01-15T07:47:52;99641.34;;;6.46;44.98
46291;BME280;32023;44.444;26.006;2024-01-15T07:50:22;99639.75;;;6.89;44.60
46291;BME280;32023;44.444;26.006;2024-01-15T07:52:54;99627.66;;;7.28;43.60
46291;BME280;32023;44.444;26.006;2024-01-15T07:55:30;99638.53;;;7.71;42.65
46291;BME280;32023;44.444;26.006;2024-01-15T07:58:15;99641.94;;;7.84;41.36
46291;BME280;32023;44.444;26.006;2024-01-15T08:00:45;99652.03;;;7.78;41.24
46291;BME280;32023;44.444;26.006;2024-01-15T08:06:33;99648.78;;;7.54;41.76
46291;BME280;32023;44.444;26.006;2024-01-15T08:09:20;99638.22;;;7.95;41.48
46291;BME280;32023;44.444;26.006;2024-01-15T08:11:47;99642.38;;;8.29;40.61
46291;BME280;32023;44.444;26.006;2024-01-15T08:14:28;99643.56;;;8.43;39.81
46291;BME280;32023;44.444;26.006;2024-01-15T08:16:54;99642.13;;;8.73;39.59
46291;BME280;32023;44.444;26.006;2024-01-15T08:19:20;99628.06;;;9.16;38.52
46291;BME280;32023;44.444;26.006;2024-01-15T08:21:49;99637.25;;;9.47;37.71
46291;BME280;32023;44.444;26.006;2024-01-15T08:24:24;99636.69;;;9.45;37.11
46291;BME280;32023;44.444;26.006;2024-01-15T08:27:10;99638.16;;;9.78;37.05
46291;BME280;32023;44.444;26.006;2024-01-15T08:29:44;99631.34;;;10.26;36.54
46291;BME280;32023;44.444;26.006;2024-01-15T08:32:14;99623.63;;;10.48;35.55
46291;BME280;32023;44.444;26.006;2024-01-15T08:34:44;99618.94;;;10.48;35.21
46291;BME280;32023;44.444;26.006;2024-01-15T08:37:12;99622.69;;;10.93;34.69
46291;BME280;32023;44.444;26.006;2024-01-15T08:39:39;99611.53;;;11.28;34.17
46291;BME280;32023;44.444;26.006;2024-01-15T08:42:12;99616.81;;;11.69;33.71
46291;BME280;32023;44.444;26.006;2024-01-15T08:44:38;99615.66;;;11.36;33.23
46291;BME280;32023;44.444;26.006;2024-01-15T08:47:06;99616.63;;;10.96;34.11
46291;BME280;32023;44.444;26.006;2024-01-15T08:49:35;99614.50;;;10.57;34.79
46291;BME280;32023;44.444;26.006;2024-01-15T08:55:07;99609.03;;;10.42;34.70
46291;BME280;32023;44.444;26.006;2024-01-15T08:57:43;99609.00;;;10.57;34.78
46291;BME280;32023;44.444;26.006;2024-01-15T09:00:34;99598.28;;;11.30;34.31
46291;BME280;32023;44.444;26.006;2024-01-15T09:03:28;99592.59;;;11.66;32.60
46291;BME280;32023;44.444;26.006;2024-01-15T09:06:21;99585.31;;;11.36;32.96
46291;BME280;32023;44.444;26.006;2024-01-15T09:08:52;99591.09;;;11.39;32.70
46291;BME280;32023;44.444;26.006;2024-01-15T09:11:50;99587.34;;;12.08;31.77
46291;BME280;32023;44.444;26.006;2024-01-15T09:14:18;99580.13;;;12.41;30.95
46291;BME280;32023;44.444;26.006;2024-01-15T09:16:56;99574.34;;;12.08;31.07
46291;BME280;32023;44.444;26.006;2024-01-15T09:19:32;99567.75;;;11.66;31.60
46291;BME280;32023;44.444;26.006;2024-01-15T09:22:04;99557.13;;;11.93;31.08
46291;BME280;32023;44.444;26.006;2024-01-15T09:24:44;99544.16;;;12.98;30.12
46291;BME280;32023;44.444;26.006;2024-01-15T09:27:36;99533.38;;;13.58;29.21
46291;BME280;32023;44.444;26.006;2024-01-15T09:30:05;99531.31;;;14.01;28.39
46291;BME280;32023;44.444;26.006;2024-01-15T09:32:34;99526.63;;;13.83;27.89
46291;BME280;32023;44.444;26.006;2024-01-15T09:35:04;99521.31;;;13.68;28.04
46291;BME280;32023;44.444;26.006;2024-01-15T09:37:49;99532.13;;;13.50;28.30
46291;BME280;32023;44.444;26.006;2024-01-15T09:40:33;99517.88;;;13.76;28.08
46291;BME280;32023;44.444;26.006;2024-01-15T09:43:15;99510.72;;;14.53;27.73
46291;BME280;32023;44.444;26.006;2024-01-15T09:45:54;99499.31;;;14.95;26.89
46291;BME280;32023;44.444;26.006;2024-01-15T09:48:31;99500.38;;;14.72;27.09
46291;BME280;32023;44.444;26.006;2024-01-15T09:51:04;99493.16;;;14.85;27.03
46291;BME280;32023;44.444;26.006;2024-01-15T09:53:35;99483.00;;;14.80;26.89
46291;BME280;32023;44.444;26.006;2024-01-15T09:56:13;99477.94;;;15.46;26.27
46291;BME280;32023;44.444;26.006;2024-01-15T09:58:56;99470.22;;;17.10;24.94
46291;BME280;32023;44.444;26.006;2024-01-15T10:01:28;99469.22;;;18.09;23.50
46291;BME280;32023;44.444;26.006;2024-01-15T10:03:57;99465.34;;;18.48;23.02
46291;BME280;32023;44.444;26.006;2024-01-15T10:06:26;99459.59;;;18.91;22.29
46291;BME280;32023;44.444;26.006;2024-01-15T10:09:09;99446.28;;;19.80;21.49
46291;BME280;32023;44.444;26.006;2024-01-15T10:15:06;99430.56;;;20.08;20.43
46291;BME280;32023;44.444;26.006;2024-01-15T10:17:51;99432.94;;;19.23;21.12
46291;BME280;32023;44.444;26.006;2024-01-15T10:20:32;99433.19;;;16.84;23.61
46291;BME280;32023;44.444;26.006;2024-01-15T10:22:59;99439.19;;;15.76;24.81
46291;BME280;32023;44.444;26.006;2024-01-15T10:25:27;99431.44;;;15.07;26.00
46291;BME280;32023;44.444;26.006;2024-01-15T10:28:02;99428.31;;;15.22;25.93
46291;BME280;32023;44.444;26.006;2024-01-15T10:30:29;99423.31;;;15.10;26.25
46291;BME280;32023;44.444;26.006;2024-01-15T10:33:05;99428.00;;;14.19;26.80
46291;BME280;32023;44.444;26.006;2024-01-15T10:35:35;99423.31;;;13.87;27.76
46291;BME280;32023;44.444;26.006;2024-01-15T10:38:02;99423.38;;;15.77;25.56
46291;BME280;32023;44.444;26.006;2024-01-15T10:40:36;99417.53;;;17.14;23.79
46291;BME280;32023;44.444;26.006;2024-01-15T10:43:11;99421.44;;;17.73;22.84
46291;BME280;32023;44.444;26.006;2024-01-15T10:45:38;99409.94;;;18.47;22.18
46291;BME280;32023;44.444;26.006;2024-01-15T10:48:14;99411.38;;;18.53;22.14
46291;BME280;32023;44.444;26.006;2024-01-15T10:50:43;99390.47;;;19.59;21.58
46291;BME280;32023;44.444;26.006;2024-01-15T10:53:19;99396.13;;;19.83;20.52
46291;BME280;32023;44.444;26.006;2024-01-15T10:55:50;99382.44;;;19.16;21.09
46291;BME280;32023;44.444;26.006;2024-01-15T10:58:23;99392.66;;;18.15;22.10
46291;BME280;32023;44.444;26.006;2024-01-15T11:00:53;99381.63;;;17.81;22.93
46291;BME280;32023;44.444;26.006;2024-01-15T11:03:21;99375.50;;;18.43;22.10
46291;BME280;32023;44.444;26.006;2024-01-15T11:05:50;99367.94;;;17.24;23.12
46291;BME280;32023;44.444;26.006;2024-01-15T11:08:19;99357.75;;;16.20;24.65
46291;BME280;32023;44.444;26.006;2024-01-15T11:10:51;99358.25;;;16.22;24.72
46291;BME280;32023;44.444;26.006;2024-01-15T11:19:46;99352.19;;;17.63;23.40
46291;BME280;32023;44.444;26.006;2024-01-15T11:25:14;99343.09;;;18.29;22.95
46291;BME280;32023;44.444;26.006;2024-01-15T11:27:50;99347.59;;;18.13;22.94
46291;BME280;32023;44.444;26.006;2024-01-15T11:30:25;99349.31;;;17.97;23.14
46291;BME280;32023;44.444;26.006;2024-01-15T11:32:51;99339.00;;;18.65;22.62
46291;BME280;32023;44.444;26.006;2024-01-15T11:35:21;99335.16;;;19.97;21.48
46291;BME280;32023;44.444;26.006;2024-01-15T11:40:37;99328.66;;;18.86;22.38
46291;BME280;32023;44.444;26.006;2024-01-15T11:43:09;99295.13;;;18.15;22.72
46291;BME280;32023;44.444;26.006;2024-01-15T11:45:40;99331.88;;;17.45;23.53
46291;BME280;32023;44.444;26.006;2024-01-15T11:48:14;99335.19;;;15.82;25.21
46291;BME280;32023;44.444;26.006;2024-01-15T11:50:46;99341.72;;;14.89;26.63
46291;BME280;32023;44.444;26.006;2024-01-15T11:53:43;99339.19;;;13.42;28.55
46291;BME280;32023;44.444;26.006;2024-01-15T11:56:15;99326.88;;;12.65;29.76
46291;BME280;32023;44.444;26.006;2024-01-15T11:58:44;99321.53;;;12.31;30.52
46291;BME280;32023;44.444;26.006;2024-01-15T12:01:18;99321.81;;;12.11;31.01
46291;BME280;32023;44.444;26.006;2024-01-15T12:03:48;99315.66;;;11.95;31.30
46291;BME280;32023;44.444;26.006;2024-01-15T12:06:15;99314.38;;;11.88;31.65
46291;BME280;32023;44.444;26.006;2024-01-15T12:09:06;99307.41;;;11.72;31.76
46291;BME280;32023;44.444;26.006;2024-01-15T12:11:47;99309.59;;;11.70;31.94
46291;BME280;32023;44.444;26.006;2024-01-15T12:14:32;99307.94;;;11.69;32.02
46291;BME280;32023;44.444;26.006;2024-01-15T12:16:58;99304.94;;;11.41;32.59
46291;BME280;32023;44.444;26.006;2024-01-15T12:19:27;99297.44;;;11.18;32.89
46291;BME280;32023;44.444;26.006;2024-01-15T12:21:54;99292.03;;;11.08;33.28
46291;BME280;32023;44.444;26.006;2024-01-15T12:24:25;99285.13;;;10.77;33.40
46291;BME280;32023;44.444;26.006;2024-01-15T12:26:56;99272.78;;;10.69;33.78
46291;BME280;32023;44.444;26.006;2024-01-15T12:29:23;99276.81;;;10.82;34.02
46291;BME280;32023;44.444;26.006;2024-01-15T12:31:57;99281.06;;;10.69;34.04
46291;BME280;32023;44.444;26.006;2024-01-15T12:34:23;99278.75;;;10.47;34.28
46291;BME280;32023;44.444;26.006;2024-01-15T12:36:59;99273.41;;;10.22;34.90
46291;BME280;32023;44.444;26.006;2024-01-15T12:39:25;99270.72;;;10.07;35.17
46291;BME280;32023;44.444;26.006;2024-01-15T12:41:55;99263.53;;;10.11;35.16
46291;BME280;32023;44.444;26.006;2024-01-15T12:44:21;99256.56;;;10.29;34.86
46291;BME280;32023;44.444;26.006;2024-01-15T12:46:48;99249.63;;;10.41;34.64
46291;BME280;32023;44.444;26.006;2024-01-15T12:49:24;99243.50;;;10.49;34.21
46291;BME280;32023;44.444;26.006;2024-01-15T12:51:56;99248.13;;;10.54;34.08
46291;BME280;32023;44.444;26.006;2024-01-15T12:54:26;99243.44;;;10.54;34.12
46291;BME280;32023;44.444;26.006;2024-01-15T12:56:52;99238.53;;;10.51;34.02
46291;BME280;32023;44.444;26.006;2024-01-15T12:59:19;99235.25;;;10.49;34.04
46291;BME280;32023;44.444;26.006;2024-01-15T13:01:46;99240.50;;;10.46;34.10
46291;BME280;32023;44.444;26.006;2024-01-15T13:04:30;99233.69;;;10.38;34.62
46291;BME280;32023;44.444;26.006;2024-01-15T13:06:57;99237.03;;;10.30;35.21
46291;BME280;32023;44.444;26.006;2024-01-15T13:09:23;99217.81;;;10.25;35.36
46291;BME280;32023;44.444;26.006;2024-01-15T13:12:05;99224.16;;;10.21;35.56
46291;BME280;32023;44.444;26.006;2024-01-15T13:14:41;99220.03;;;10.13;35.69
46291;BME280;32023;44.444;26.006;2024-01-15T13:17:10;99220.91;;;10.08;36.13
46291;BME280;32023;44.444;26.006;2024-01-15T13:19:39;99216.28;;;10.04;36.77
46291;BME280;32023;44.444;26.006;2024-01-15T13:22:11;99209.69;;;10.00;37.20
46291;BME280;32023;44.444;26.006;2024-01-15T13:24:51;99211.88;;;9.98;37.29
46291;BME280;32023;44.444;26.006;2024-01-15T13:27:21;99205.31;;;9.94;37.96
46291;BME280;32023;44.444;26.006;2024-01-15T13:29:47;99204.81;;;9.87;38.06
46291;BME280;32023;44.444;26.006;2024-01-15T13:32:24;99215.28;;;9.80;38.58
46291;BME280;32023;44.444;26.006;2024-01-15T13:34:52;99201.03;;;9.73;38.51
46291;BME280;32023;44.444;26.006;2024-01-15T13:37:18;99203.28;;;9.65;38.80
46291;BME280;32023;44.444;26.006;2024-01-15T13:39:49;99207.44;;;9.58;38.58
46291;BME280;32023;44.444;26.006;2024-01-15T13:42:18;99208.03;;;9.45;38.92
46291;BME280;32023;44.444;26.006;2024-01-15T13:44:45;99211.94;;;9.29;39.70
46291;BME280;32023;44.444;26.006;2024-01-15T13:47:34;99210.03;;;9.19;39.87
46291;BME280;32023;44.444;26.006;2024-01-15T13:50:00;99207.84;;;9.11;40.24
46291;BME280;32023;44.444;26.006;2024-01-15T13:52:28;99205.13;;;9.06;41.05
46291;BME280;32023;44.444;26.006;2024-01-15T13:55:00;99200.75;;;9.00;40.68
46291;BME280;32023;44.444;26.006;2024-01-15T13:57:39;99207.34;;;8.94;41.10
46291;BME280;32023;44.444;26.006;2024-01-15T14:00:14;99205.44;;;8.89;40.80
46291;BME280;32023;44.444;26.006;2024-01-15T14:02:44;99198.59;;;8.82;41.07
46291;BME280;32023;44.444;26.006;2024-01-15T14:05:13;99197.50;;;8.78;41.07
46291;BME280;32023;44.444;26.006;2024-01-15T14:08:08;99192.56;;;8.75;41.04
46291;BME280;32023;44.444;26.006;2024-01-15T14:10:35;99189.00;;;8.74;41.30
46291;BME280;32023;44.444;26.006;2024-01-15T14:13:05;99191.47;;;8.76;41.00
46291;BME280;32023;44.444;26.006;2024-01-15T14:15:40;99189.25;;;8.73;40.98